Time;durP1;ratioP1;P1;durP2;ratioP2;P2;SDS_P1;SDS_P2;PMS_P1;PMS_P2;Temp;Humidity;BMP_temperature;BMP_pressure;BME280_temperature;BME280_humidity;BME280_pressure;Samples;Min_cycle;Max_cycle;Signal;HPM_P1;HPM_P2
2022/09/27 00:01:11;;;;;;;12.25;7.80;;;;;;;16.09;90.20;98010.99;1662838;86;21488;-85
2022/09/27 00:03:41;;;;;;;13.05;7.15;;;;;;;16.09;88.48;98008.38;1638430;86;21003;-81
2022/09/27 00:06:19;;;;;;;10.53;6.15;;;;;;;16.05;89.73;98004.23;1653147;87;21116;-80
2022/09/27 00:08:47;;;;;;;10.90;5.10;;;;;;;16.03;89.39;98006.12;1648587;86;21001;-80
2022/09/27 00:11:31;;;;;;;11.53;6.25;;;;;;;15.96;89.13;97998.78;1681582;85;21585;-82
2022/09/27 00:14:00;;;;;;;9.75;5.30;;;;;;;15.91;88.46;98004.30;1665529;86;20998;-81
2022/09/27 00:16:32;;;;;;;13.55;5.50;;;;;;;15.77;88.57;98006.48;1665573;86;21045;-81
2022/09/27 00:19:04;;;;;;;10.28;5.80;;;;;;;15.71;89.68;97999.81;1663719;85;21125;-82
2022/09/27 00:21:32;;;;;;;9.75;6.08;;;;;;;15.69;89.50;97998.24;1657597;86;21562;-78
2022/09/27 00:24:01;;;;;;;10.15;5.85;;;;;;;15.63;89.20;97981.13;1668385;86;21009;-81
2022/09/27 00:26:29;;;;;;;12.60;6.70;;;;;;;15.61;88.90;97981.70;1665516;85;21027;-81
2022/09/27 00:28:57;;;;;;;13.75;6.55;;;;;;;15.58;89.29;97971.42;1684853;82;21025;-79
2022/09/27 00:31:29;;;;;;;12.18;5.87;;;;;;;15.57;88.77;97964.49;1679069;85;21086;-84
2022/09/27 00:34:00;;;;;;;16.30;6.30;;;;;;;15.50;88.13;97965.36;1669361;86;21023;-86
2022/09/27 00:36:29;;;;;;;10.90;6.28;;;;;;;15.47;89.27;97954.23;1668627;86;20990;-86
2022/09/27 00:39:01;;;;;;;11.83;6.70;;;;;;;15.46;90.21;97949.95;1664129;86;20999;-85
2022/09/27 00:41:33;;;;;;;11.65;7.22;;;;;;;15.46;90.20;97953.88;1664544;86;21038;-84
2022/09/27 00:44:07;;;;;;;12.98;6.78;;;;;;;15.47;90.67;97950.30;1674722;86;20974;-83
2022/09/27 00:46:45;;;;;;;10.98;6.65;;;;;;;15.44;88.91;97946.58;1667953;86;21071;-87
2022/09/27 00:49:21;;;;;;;10.30;6.37;;;;;;;15.38;89.81;97950.87;1669150;86;21034;-85
2022/09/27 00:51:54;;;;;;;11.60;6.30;;;;;;;15.39;90.59;97942.92;1662687;86;21035;-86
2022/09/27 00:54:25;;;;;;;14.65;7.10;;;;;;;15.41;90.31;97945.45;1669289;86;21046;-81
2022/09/27 00:56:54;;;;;;;9.78;5.97;;;;;;;15.44;91.37;97940.03;1663467;86;21077;-82
2022/09/27 00:59:29;;;;;;;13.48;6.30;;;;;;;15.46;91.36;97942.09;1665944;86;21015;-82
2022/09/27 01:01:57;;;;;;;13.55;6.20;;;;;;;15.47;91.50;97941.13;1658594;85;21542;-81
2022/09/27 01:04:29;;;;;;;11.65;5.92;;;;;;;15.46;91.50;97941.61;1665054;86;21378;-82
2022/09/27 01:06:57;;;;;;;10.48;6.05;;;;;;;15.45;91.24;97943.02;1659441;86;21170;-81
2022/09/27 01:09:25;;;;;;;11.15;6.60;;;;;;;15.44;91.01;97935.63;1660152;86;21510;-82
2022/09/27 01:12:30;;;;;;;18.60;6.37;;;;;;;15.42;91.14;97923.10;1667462;86;21036;-81
2022/09/27 01:15:34;;;;;;;9.68;5.72;;;;;;;15.44;91.17;97916.47;1668956;86;21097;-80
2022/09/27 01:18:16;;;;;;;9.88;5.45;;;;;;;15.47;91.06;97907.92;1669527;85;21581;-79
2022/09/27 01:21:01;;;;;;;10.32;4.87;;;;;;;15.48;91.35;97910.09;1656718;86;21078;-81
2022/09/27 01:24:09;;;;;;;10.90;4.55;;;;;;;15.47;90.78;97901.84;1664750;86;21033;-80
2022/09/27 01:27:27;;;;;;;6.45;3.58;;;;;;;15.43;90.44;97905.13;1658121;86;21023;-83
2022/09/27 01:30:13;;;;;;;6.35;3.62;;;;;;;15.37;88.99;97891.12;1609326;88;21065;-83
2022/09/27 01:32:56;;;;;;;6.90;3.98;;;;;;;15.25;89.94;97884.88;1631795;87;21109;-80
2022/09/27 01:35:36;;;;;;;7.05;4.00;;;;;;;15.18;88.83;97878.37;1632060;88;21026;-81
2022/09/27 01:38:15;;;;;;;8.33;4.58;;;;;;;15.08;89.21;97870.70;1627873;87;21023;-82
2022/09/27 01:41:03;;;;;;;8.35;4.05;;;;;;;15.03;89.32;97870.16;1612747;88;21050;-83
2022/09/27 01:43:43;;;;;;;9.03;4.10;;;;;;;15.03;90.17;97863.62;1611369;87;21038;-80
2022/09/27 01:46:16;;;;;;;9.60;4.17;;;;;;;15.02;90.05;97866.72;1653679;86;21750;-81
2022/09/27 01:48:50;;;;;;;7.72;4.47;;;;;;;15.00;89.59;97860.73;1676442;85;21085;-83
2022/09/27 01:51:30;;;;;;;11.10;5.17;;;;;;;14.97;90.00;97849.14;1668172;86;21038;-83
2022/09/27 01:54:02;;;;;;;12.60;5.70;;;;;;;14.99;90.13;97845.13;1667083;86;21503;-83
2022/09/27 01:56:53;;;;;;;10.75;5.08;;;;;;;14.98;90.32;97848.22;1669113;86;21497;-80
2022/09/27 01:59:31;;;;;;;8.60;4.95;;;;;;;14.99;90.67;97842.03;1664013;85;20995;-82
2022/09/27 02:02:07;;;;;;;12.00;6.03;;;;;;;14.99;89.68;97852.98;1666792;86;21002;-82
2022/09/27 02:04:40;;;;;;;11.95;6.70;;;;;;;14.96;90.49;97858.39;1661755;86;21019;-80
2022/09/27 02:07:23;;;;;;;16.10;11.30;;;;;;;14.95;90.32;97846.26;1663679;86;21012;-81
2022/09/27 02:09:59;;;;;;;18.90;11.75;;;;;;;14.87;90.00;97844.95;1671403;85;21070;-82
2022/09/27 02:12:37;;;;;;;14.20;8.50;;;;;;;14.83;89.72;97842.63;1661864;86;21112;-82
2022/09/27 02:15:11;;;;;;;10.75;6.20;;;;;;;14.76;90.41;97838.23;1671574;85;21002;-81
2022/09/27 02:17:53;;;;;;;12.35;6.30;;;;;;;14.69;90.61;97828.63;1663946;85;21078;-81
2022/09/27 02:20:41;;;;;;;9.43;5.75;;;;;;;14.64;90.94;97825.47;1672965;85;20961;-82
2022/09/27 02:23:37;;;;;;;9.98;5.70;;;;;;;14.60;90.47;97832.27;1669559;86;21553;-80
2022/09/27 02:26:21;;;;;;;9.65;5.15;;;;;;;14.57;90.53;97837.23;1668896;85;21026;-82
2022/09/27 02:29:01;;;;;;;11.08;5.50;;;;;;;14.56;90.99;97834.67;1665685;86;21538;-81
2022/09/27 02:31:30;;;;;;;10.30;6.03;;;;;;;14.51;91.07;97831.04;1662099;86;21435;-80
2022/09/27 02:34:15;;;;;;;11.78;5.87;;;;;;;14.48;91.13;97832.08;1660434;86;21020;-81
2022/09/27 02:36:43;;;;;;;9.53;6.08;;;;;;;14.45;91.00;97836.64;1648924;87;21008;-82
2022/09/27 02:39:11;;;;;;;12.15;5.75;;;;;;;14.44;90.92;97827.97;1659309;86;20980;-81
2022/09/27 02:41:39;;;;;;;13.08;6.62;;;;;;;14.44;90.78;97828.41;1633569;87;21030;-81
2022/09/27 02:44:11;;;;;;;12.18;6.87;;;;;;;14.41;90.88;97830.76;1630169;87;20987;-80
2022/09/27 02:47:05;;;;;;;13.25;7.70;;;;;;;14.39;90.75;97833.94;1636251;87;21563;-80
2022/09/27 02:50:13;;;;;;;14.13;7.58;;;;;;;14.36;91.72;97838.50;1648254;87;21029;-81
2022/09/27 02:53:07;;;;;;;13.55;6.85;;;;;;;14.33;91.46;97840.84;1625985;87;21574;-82
2022/09/27 02:55:51;;;;;;;14.45;7.55;;;;;;;14.33;92.31;97836.92;1659444;86;21485;-80
2022/09/27 02:58:41;;;;;;;19.42;9.13;;;;;;;14.35;92.22;97838.98;1589543;87;21030;-81
2022/09/27 03:01:37;;;;;;;;;;;;;;;14.33;92.15;97842.98;1579120;87;21069;-81
2022/09/27 03:04:17;;;;;;;13.88;7.45;;;;;;;14.30;92.72;97830.56;1630599;87;20120;-81
2022/09/27 03:06:47;;;;;;;12.40;6.67;;;;;;;14.26;92.25;97829.89;1620721;88;21030;-82
2022/09/27 03:09:23;;;;;;;14.00;7.78;;;;;;;14.22;92.57;97824.48;1666509;86;21024;-80
2022/09/27 03:11:52;;;;;;;15.13;8.80;;;;;;;14.23;92.81;97822.73;1672226;85;21051;-80
2022/09/27 03:14:20;;;;;;;17.45;9.48;;;;;;;14.18;92.22;97821.67;1661862;86;21015;-81
2022/09/27 03:16:49;;;;;;;18.87;10.80;;;;;;;14.12;92.95;97826.83;1671838;85;21552;-79
2022/09/27 03:19:25;;;;;;;24.27;12.05;;;;;;;14.12;92.32;97829.45;1664089;86;21047;-81
2022/09/27 03:21:54;;;;;;;24.07;11.97;;;;;;;14.10;91.52;97835.67;1665451;86;21434;-80
2022/09/27 03:24:22;;;;;;;25.30;13.68;;;;;;;14.08;92.05;97835.76;1663672;86;21020;-79
2022/09/27 03:26:49;;;;;;;26.52;12.95;;;;;;;14.12;92.83;97833.37;1644099;87;21010;-80
2022/09/27 03:29:17;;;;;;;22.77;12.07;;;;;;;14.16;92.46;97838.39;1612113;88;21056;-81
2022/09/27 03:31:47;;;;;;;14.70;8.80;;;;;;;14.17;93.07;97836.17;1621430;87;20992;-83
2022/09/27 03:34:32;;;;;;;13.18;7.30;;;;;;;14.18;91.72;97837.84;1642215;86;21508;-80
2022/09/27 03:37:01;;;;;;;12.98;7.25;;;;;;;14.11;90.93;97842.13;1656142;86;21008;-80
2022/09/27 03:39:28;;;;;;;13.90;7.83;;;;;;;14.06;92.35;97838.09;1600596;87;21072;-81
2022/09/27 03:41:56;;;;;;;20.90;9.78;;;;;;;14.04;92.50;97836.04;1655867;86;21017;-80
2022/09/27 03:44:24;;;;;;;14.25;7.67;;;;;;;14.06;92.86;97837.63;1661874;85;20966;-80
2022/09/27 03:46:52;;;;;;;16.70;9.25;;;;;;;14.11;92.71;97836.06;1654881;86;20992;-81
2022/09/27 03:49:20;;;;;;;15.95;7.67;;;;;;;14.12;93.33;97833.81;1653266;86;21524;-82
2022/09/27 03:51:47;;;;;;;14.15;6.33;;;;;;;14.12;93.71;97834.67;1659326;86;21025;-81
2022/09/27 03:54:15;;;;;;;11.35;5.35;;;;;;;14.10;93.69;97826.05;1631880;86;21012;-82
2022/09/27 03:56:43;;;;;;;9.18;4.80;;;;;;;14.09;93.21;97826.17;1633418;87;21513;-80
2022/09/27 03:59:12;;;;;;;10.82;4.78;;;;;;;14.04;92.73;97827.73;1674555;85;21437;-80
2022/09/27 04:01:43;;;;;;;11.73;4.87;;;;;;;13.97;93.20;97834.27;1629388;86;20992;-82
2022/09/27 04:04:13;;;;;;;9.85;4.42;;;;;;;13.95;92.40;97826.13;1656058;86;21515;-81
2022/09/27 04:06:41;;;;;;;14.03;4.97;;;;;;;13.85;92.80;97824.55;1633879;87;21022;-82
2022/09/27 04:09:09;;;;;;;9.48;4.72;;;;;;;13.79;92.85;97823.59;1638301;87;21031;-80
2022/09/27 04:11:38;;;;;;;10.25;4.10;;;;;;;13.75;93.22;97823.38;1613068;87;21109;-81
2022/09/27 04:14:07;;;;;;;11.73;5.45;;;;;;;13.68;93.48;97818.51;1634425;87;21014;-81
2022/09/27 04:16:38;;;;;;;7.28;4.08;;;;;;;13.68;92.86;97819.81;1670382;86;21127;-80
2022/09/27 04:19:10;;;;;;;11.05;4.80;;;;;;;13.61;94.13;97821.13;1662144;86;21071;-82
2022/09/27 04:21:49;;;;;;;9.55;4.37;;;;;;;13.61;94.55;97815.03;1668445;85;20976;-82
2022/09/27 04:24:17;;;;;;;9.50;4.15;;;;;;;13.60;94.78;97821.20;1640664;86;21020;-80
2022/09/27 04:26:47;;;;;;;12.55;4.60;;;;;;;13.59;94.88;97820.81;1670171;85;21469;-79
2022/09/27 04:29:15;;;;;;;11.38;4.47;;;;;;;13.53;95.31;97817.64;1635021;87;21094;-80
2022/09/27 04:31:45;;;;;;;9.00;4.45;;;;;;;13.51;95.37;97811.66;1642304;87;21024;-81
2022/09/27 04:37:12;;;;;;;11.28;4.72;;;;;;;13.45;96.38;97809.41;1613158;85;21030;-80
2022/09/27 04:39:42;;;;;;;19.05;5.78;;;;;;;13.46;96.19;97811.08;1679405;85;20982;-84
2022/09/27 04:42:10;;;;;;;15.15;5.50;;;;;;;13.49;95.78;97800.94;1676361;85;21006;-84
2022/09/27 04:44:37;;;;;;;15.80;6.42;;;;;;;13.50;95.38;97799.52;1677873;85;21557;-82
2022/09/27 04:47:05;;;;;;;15.53;6.97;;;;;;;13.56;94.76;97805.34;1683086;85;20994;-82
2022/09/27 04:49:33;;;;;;;12.00;5.50;;;;;;;13.58;95.77;97803.00;1617329;88;21071;-81
2022/09/27 04:52:01;;;;;;;12.30;5.17;;;;;;;13.62;95.54;97811.03;1683216;85;21053;-82
2022/09/27 04:54:29;;;;;;;10.35;5.65;;;;;;;13.66;95.17;97811.23;1678637;85;21052;-82
2022/09/27 04:56:59;;;;;;;10.05;4.50;;;;;;;13.71;94.81;97806.59;1682352;85;21038;-82
2022/09/27 04:59:26;;;;;;;10.00;4.15;;;;;;;13.70;95.24;97803.59;1678526;85;20994;-80
2022/09/27 05:01:58;;;;;;;8.38;4.40;;;;;;;13.70;96.14;97809.28;1680042;85;21081;-83
2022/09/27 05:04:41;;;;;;;9.28;4.20;;;;;;;13.74;95.12;97809.48;1616870;88;21078;-80
2022/09/27 05:07:09;;;;;;;8.18;4.40;;;;;;;13.79;96.02;97807.93;1627025;88;21057;-82
2022/09/27 05:09:39;;;;;;;8.95;4.72;;;;;;;13.86;94.71;97808.75;1632515;88;20999;-80
2022/09/27 05:12:07;;;;;;;9.20;4.83;;;;;;;13.86;94.99;97802.22;1624643;87;21528;-86
2022/09/27 05:14:49;;;;;;;6.95;4.12;;;;;;;13.88;96.15;97800.36;1632377;87;21004;-81
2022/09/27 05:17:17;;;;;;;8.45;4.30;;;;;;;13.89;96.22;97798.14;1636038;86;21057;-80
2022/09/27 05:19:50;;;;;;;11.20;4.37;;;;;;;13.94;96.19;97803.08;1608344;88;21084;-82
2022/09/27 05:22:22;;;;;;;7.53;4.22;;;;;;;13.99;95.92;97798.91;1621093;88;21025;-85
2022/09/27 05:24:50;;;;;;;8.25;4.30;;;;;;;14.04;95.24;97800.77;1633828;88;20993;-86
2022/09/27 05:27:19;;;;;;;9.30;4.87;;;;;;;14.12;95.37;97800.70;1625723;88;20992;-82
2022/09/27 05:29:47;;;;;;;14.43;4.83;;;;;;;14.17;94.63;97795.66;1635926;88;20969;-80
2022/09/27 05:32:17;;;;;;;9.25;5.22;;;;;;;14.23;95.40;97794.81;1628024;88;21050;-82
2022/09/27 05:34:46;;;;;;;16.67;6.15;;;;;;;14.30;95.16;97786.11;1624218;87;21013;-83
2022/09/27 05:37:13;;;;;;;8.38;5.08;;;;;;;14.35;94.68;97780.15;1643958;87;21534;-84
2022/09/27 05:39:42;;;;;;;12.03;5.50;;;;;;;14.39;94.09;97783.42;1624908;87;21533;-84
2022/09/27 05:42:13;;;;;;;20.10;8.23;;;;;;;14.42;94.29;97779.30;1644227;86;21072;-82
2022/09/27 05:44:41;;;;;;;20.12;7.87;;;;;;;14.44;94.68;97780.05;1649428;86;20993;-81
2022/09/27 05:47:09;;;;;;;12.43;6.15;;;;;;;14.46;94.33;97775.55;1642076;86;21057;-81
2022/09/27 05:49:39;;;;;;;11.53;5.72;;;;;;;14.41;94.83;97771.92;1646318;85;21511;-84
2022/09/27 05:52:08;;;;;;;10.58;5.85;;;;;;;14.43;94.93;97781.83;1643284;85;21061;-82
2022/09/27 05:54:38;;;;;;;10.20;5.30;;;;;;;14.40;94.62;97780.69;1647620;85;21008;-84
2022/09/27 05:57:07;;;;;;;11.73;5.75;;;;;;;14.39;94.14;97778.20;1643311;85;21084;-80
2022/09/27 05:59:37;;;;;;;12.30;6.60;;;;;;;14.36;94.91;97780.98;1642809;85;21009;-83
2022/09/27 06:02:17;;;;;;;14.93;6.72;;;;;;;14.35;94.52;97778.84;1652917;85;21044;-80
2022/09/27 06:04:45;;;;;;;16.80;6.58;;;;;;;14.44;94.24;97779.59;1651549;85;21000;-84
2022/09/27 06:07:23;;;;;;;12.05;5.20;;;;;;;14.43;95.00;97774.45;1624905;87;21548;-83
2022/09/27 06:09:51;;;;;;;15.13;5.55;;;;;;;14.48;94.72;97783.70;1644885;85;21009;-84
2022/09/27 06:12:19;;;;;;;13.32;5.65;;;;;;;14.53;94.73;97786.85;1643837;85;20989;-80
2022/09/27 06:14:47;;;;;;;13.83;5.47;;;;;;;14.52;94.82;97783.87;1650013;85;20989;-85
2022/09/27 06:17:17;;;;;;;15.75;5.83;;;;;;;14.56;95.61;97790.21;1650555;85;21045;-84
2022/09/27 06:19:46;;;;;;;15.63;5.87;;;;;;;14.63;95.33;97792.86;1647552;85;21007;-81
2022/09/27 06:22:14;;;;;;;16.73;4.62;;;;;;;14.72;94.67;97793.58;1627498;87;20997;-83
2022/09/27 06:24:44;;;;;;;9.13;5.03;;;;;;;14.78;94.55;97793.22;1644987;87;21037;-81
2022/09/27 06:27:13;;;;;;;10.10;3.90;;;;;;;14.85;94.11;97793.19;1644586;87;21041;-81
2022/09/27 06:29:49;;;;;;;8.65;4.00;;;;;;;14.85;93.95;97794.49;1647135;85;21045;-84
2022/09/27 06:32:19;;;;;;;8.53;3.83;;;;;;;14.83;93.88;97798.98;1640475;85;21024;-86
2022/09/27 06:34:51;;;;;;;6.47;3.87;;;;;;;14.82;93.70;97788.16;1646344;85;21031;-81
2022/09/27 06:37:19;;;;;;;6.55;3.50;;;;;;;14.88;93.83;97787.77;1630375;86;21462;-84
2022/09/27 06:39:48;;;;;;;8.43;3.80;;;;;;;14.95;93.34;97788.69;1623736;87;21020;-85
2022/09/27 06:42:34;;;;;;;8.00;3.52;;;;;;;14.96;93.13;97787.28;1646920;85;21011;-82
2022/09/27 06:45:07;;;;;;;5.93;3.10;;;;;;;15.00;93.18;97789.22;1646863;85;21035;-81
2022/09/27 06:47:54;;;;;;;8.83;3.20;;;;;;;15.07;92.93;97801.81;1641591;85;21063;-84
2022/09/27 06:50:35;;;;;;;8.73;3.55;;;;;;;15.10;92.69;97795.56;1644840;85;20987;-81
2022/09/27 06:53:05;;;;;;;9.30;2.70;;;;;;;15.08;92.91;97793.04;1641998;85;21000;-81
2022/09/27 06:55:33;;;;;;;5.78;3.52;;;;;;;15.17;92.47;97792.91;1643701;85;21542;-86
2022/09/27 07:00:52;;;;;;;6.97;3.25;;;;;;;15.22;92.10;97801.31;1635251;85;21057;-80
2022/09/27 07:03:40;;;;;;;4.53;2.90;;;;;;;15.22;92.23;97808.30;1642191;85;21043;-81
2022/09/27 07:06:25;;;;;;;10.08;4.10;;;;;;;15.19;92.49;97811.97;1645113;85;21154;-81
2022/09/27 07:08:58;;;;;;;13.10;5.00;;;;;;;15.23;92.06;97810.83;1636940;85;21008;-80
2022/09/27 07:11:25;;;;;;;7.65;4.25;;;;;;;15.28;92.36;97805.32;1648493;85;21051;-81
2022/09/27 07:13:55;;;;;;;7.47;4.22;;;;;;;15.28;92.21;97794.37;1646395;87;21027;-79
2022/09/27 07:16:23;;;;;;;8.73;4.60;;;;;;;15.25;92.53;97782.77;1664046;86;21093;-79
2022/09/27 07:18:51;;;;;;;8.33;4.37;;;;;;;15.26;92.05;97788.39;1662635;86;20982;-85
2022/09/27 07:21:19;;;;;;;8.98;3.95;;;;;;;15.28;91.87;97794.37;1661630;85;20997;-83
2022/09/27 07:23:47;;;;;;;7.28;3.98;;;;;;;15.31;91.66;97801.17;1662558;86;21018;-83
2022/09/27 07:26:16;;;;;;;9.05;3.83;;;;;;;15.33;92.17;97798.46;1669129;86;21119;-84
2022/09/27 07:28:44;;;;;;;8.03;3.85;;;;;;;15.30;91.94;97791.18;1664008;86;21017;-81
2022/09/27 07:31:14;;;;;;;10.03;4.28;;;;;;;15.38;91.62;97791.13;1669131;85;21062;-80
2022/09/27 07:33:42;;;;;;;6.67;3.80;;;;;;;15.42;92.33;97784.75;1661259;86;20989;-79
2022/09/27 07:36:11;;;;;;;7.65;3.33;;;;;;;15.48;91.98;97773.90;1629513;87;20998;-78
2022/09/27 07:38:41;;;;;;;7.40;3.80;;;;;;;15.60;91.56;97783.56;1653755;86;21015;-82
2022/09/27 07:41:12;;;;;;;9.80;3.77;;;;;;;15.66;91.44;97776.59;1653290;85;20985;-80
2022/09/27 07:43:43;;;;;;;9.60;3.62;;;;;;;15.69;91.78;97773.75;1669186;86;20984;-81
2022/09/27 07:46:12;;;;;;;7.42;4.12;;;;;;;15.79;91.55;97776.63;1654173;87;20997;-80
2022/09/27 07:48:57;;;;;;;6.05;3.60;;;;;;;15.91;91.40;97777.58;1656242;85;21048;-80
2022/09/27 07:51:35;;;;;;;7.90;3.58;;;;;;;15.94;91.34;97773.45;1648447;86;21045;-82
2022/09/27 07:54:11;;;;;;;6.87;3.67;;;;;;;16.05;91.15;97769.61;1649650;86;21028;-80
2022/09/27 07:56:46;;;;;;;5.75;3.52;;;;;;;16.08;90.93;97770.73;1647652;86;20989;-83
2022/09/27 07:59:16;;;;;;;8.45;4.17;;;;;;;16.10;91.18;97777.19;1652973;86;20981;-80
2022/09/27 08:01:45;;;;;;;7.87;4.28;;;;;;;16.18;90.65;97777.48;1655323;86;21064;-83
2022/09/27 08:04:13;;;;;;;8.55;3.27;;;;;;;16.19;90.59;97773.91;1653686;86;20989;-80
2022/09/27 08:06:42;;;;;;;9.40;4.25;;;;;;;16.24;90.40;97763.13;1657570;85;21068;-82
2022/09/27 08:09:10;;;;;;;7.70;4.72;;;;;;;16.34;90.16;97765.47;1653773;86;20997;-80
2022/09/27 08:11:40;;;;;;;9.60;4.47;;;;;;;16.39;89.88;97771.20;1652463;87;20992;-79
2022/09/27 08:14:09;;;;;;;11.20;4.05;;;;;;;16.45;89.79;97766.88;1653536;86;21563;-81
2022/09/27 08:16:40;;;;;;;6.20;3.60;;;;;;;16.60;89.50;97769.36;1647679;86;21493;-83
2022/09/27 08:19:10;;;;;;;5.60;2.87;;;;;;;16.75;89.41;97759.54;1647877;86;21001;-85
2022/09/27 08:21:53;;;;;;;8.00;3.40;;;;;;;16.87;87.22;97760.86;1651627;86;21004;-82
2022/09/27 08:24:27;;;;;;;7.42;3.15;;;;;;;16.85;85.63;97758.82;1650447;86;21005;-81
2022/09/27 08:27:09;;;;;;;5.58;3.47;;;;;;;17.03;87.42;97752.71;1658361;86;21071;-81
2022/09/27 08:29:44;;;;;;;6.28;3.35;;;;;;;17.15;87.25;97750.12;1654460;86;21017;-80
2022/09/27 08:32:13;;;;;;;7.42;3.10;;;;;;;17.31;87.05;97752.00;1654967;86;21012;-79
2022/09/27 08:34:41;;;;;;;7.75;3.30;;;;;;;17.38;86.54;97750.58;1645892;85;20972;-81
2022/09/27 08:37:10;;;;;;;8.63;3.60;;;;;;;17.42;85.41;97751.19;1631868;88;21029;-83
2022/09/27 08:39:39;;;;;;;5.17;3.40;;;;;;;17.53;84.21;97752.55;1628411;88;21021;-82
2022/09/27 08:42:42;;;;;;;10.23;4.65;;;;;;;17.56;84.93;97743.11;1623926;88;21514;-80
2022/09/27 08:45:33;;;;;;;5.00;3.17;;;;;;;17.61;83.99;97750.19;1626100;87;21138;-82
2022/09/27 08:48:04;;;;;;;7.40;3.20;;;;;;;17.77;84.39;97746.41;1646149;86;21000;-82
2022/09/27 08:50:41;;;;;;;6.12;3.45;;;;;;;17.92;84.32;97741.30;1628166;87;21065;-81
2022/09/27 08:53:21;;;;;;;8.80;2.80;;;;;;;18.03;83.71;97737.37;1629452;88;21005;-82
2022/09/27 08:55:56;;;;;;;5.53;3.00;;;;;;;18.13;83.14;97727.47;1632378;88;21110;-82
2022/09/27 08:58:36;;;;;;;8.20;3.17;;;;;;;18.29;83.84;97717.42;1632585;87;21068;-82
2022/09/27 09:01:13;;;;;;;7.55;3.02;;;;;;;18.45;84.07;97717.88;1637965;86;20966;-80
2022/09/27 09:03:50;;;;;;;8.10;3.37;;;;;;;18.62;82.42;97727.08;1641196;86;20942;-81
2022/09/27 09:07:05;;;;;;;4.95;2.42;;;;;;;18.71;82.35;97729.92;1646363;86;21041;-81
2022/09/27 09:09:39;;;;;;;6.97;2.90;;;;;;;18.84;81.75;97725.36;1618858;87;21032;-81
2022/09/27 09:15:54;;;;;;;4.03;2.45;;;;;;;19.16;79.26;97720.58;1632573;87;21110;-83
2022/09/27 09:19:06;;;;;;;5.92;1.92;;;;;;;19.21;80.03;97715.78;1632357;87;21081;-81
2022/09/27 09:22:16;;;;;;;4.80;2.22;;;;;;;19.33;79.40;97709.98;1642265;87;20989;-84
2022/09/27 09:24:49;;;;;;;5.97;2.00;;;;;;;19.43;78.02;97708.25;1621093;88;21031;-81
2022/09/27 09:27:50;;;;;;;5.37;2.08;;;;;;;19.54;78.86;97717.42;1613427;88;21024;-82
2022/09/27 09:30:51;;;;;;;3.67;1.67;;;;;;;19.66;78.76;97719.52;1588176;89;21082;-80
2022/09/27 09:33:25;;;;;;;4.97;1.60;;;;;;;19.81;78.16;97709.48;1613656;88;21039;-82
2022/09/27 09:36:16;;;;;;;6.10;1.60;;;;;;;19.97;76.91;97707.70;1651311;86;21525;-82
2022/09/27 09:39:24;;;;;;;4.70;2.30;;;;;;;20.06;75.59;97701.64;1625427;88;21533;-77
2022/09/27 09:42:00;;;;;;;5.55;2.65;;;;;;;20.16;75.52;97700.37;1633076;88;21035;-80
2022/09/27 09:44:36;;;;;;;3.10;1.80;;;;;;;20.33;75.87;97702.35;1630126;87;21519;-83
2022/09/27 09:47:12;;;;;;;3.60;1.57;;;;;;;20.57;76.05;97698.53;1598967;86;20994;-81
2022/09/27 09:49:50;;;;;;;5.22;2.25;;;;;;;20.74;74.62;97694.44;1628247;88;21018;-81
2022/09/27 09:52:26;;;;;;;5.90;1.65;;;;;;;20.77;73.74;97699.44;1618533;88;21003;-80
2022/09/27 09:55:05;;;;;;;2.85;1.50;;;;;;;20.90;73.25;97680.20;1626590;88;21070;-80
2022/09/27 09:57:57;;;;;;;2.50;1.37;;;;;;;21.11;72.85;97672.62;1623299;88;21019;-82
2022/09/27 10:00:26;;;;;;;6.17;1.60;;;;;;;21.22;72.94;97677.27;1624389;87;21067;-82
2022/09/27 10:02:58;;;;;;;2.98;1.60;;;;;;;21.39;71.86;97673.59;1627408;88;22073;-80
2022/09/27 10:05:27;;;;;;;3.15;1.60;;;;;;;21.40;70.06;97665.50;1628587;88;21574;-85
2022/09/27 10:08:04;;;;;;;2.52;1.30;;;;;;;21.52;71.04;97664.06;1633788;86;21126;-80
2022/09/27 10:10:33;;;;;;;2.73;1.57;;;;;;;21.65;70.19;97662.77;1628940;87;21006;-79
2022/09/27 10:13:12;;;;;;;5.30;1.65;;;;;;;21.74;66.23;97670.82;1624194;88;20991;-80
2022/09/27 10:15:41;;;;;;;6.97;1.50;;;;;;;21.81;67.56;97672.75;1623089;88;21042;-84
2022/09/27 10:18:14;;;;;;;2.70;1.20;;;;;;;21.85;67.56;97664.05;1624407;88;21494;-78
2022/09/27 10:20:50;;;;;;;6.50;1.45;;;;;;;21.94;67.73;97657.04;1630567;88;20995;-78
2022/09/27 10:23:21;;;;;;;3.33;1.40;;;;;;;21.99;65.77;97658.27;1631018;87;21514;-81
2022/09/27 10:26:01;;;;;;;3.67;1.42;;;;;;;22.08;65.05;97654.41;1615120;88;21007;-82
2022/09/27 10:28:44;;;;;;;6.70;1.60;;;;;;;22.11;66.16;97652.80;1623940;86;21114;-83
2022/09/27 10:31:16;;;;;;;4.42;1.32;;;;;;;22.22;63.88;97659.20;1633765;86;20990;-77
2022/09/27 10:34:00;;;;;;;3.87;1.50;;;;;;;22.28;64.82;97658.65;1622612;87;21487;-81
2022/09/27 10:36:33;;;;;;;2.75;2.02;;;;;;;22.29;64.63;97659.00;1658809;85;21597;-82
2022/09/27 10:39:05;;;;;;;1.17;0.88;;;;;;;22.42;65.19;97659.97;1663629;85;21042;-81
2022/09/27 10:41:43;;;;;;;1.87;1.22;;;;;;;22.53;64.21;97662.92;1660138;85;21074;-81
2022/09/27 10:44:26;;;;;;;3.37;1.30;;;;;;;22.62;63.65;97651.41;1658823;85;21038;-80
2022/09/27 10:47:06;;;;;;;1.95;1.00;;;;;;;22.75;63.83;97640.45;1657198;85;21550;-82
2022/09/27 10:49:39;;;;;;;1.10;0.95;;;;;;;22.83;63.12;97643.19;1661981;85;21538;-80
2022/09/27 10:52:22;;;;;;;2.30;1.30;;;;;;;22.93;61.42;97646.58;1678335;85;21073;-80
2022/09/27 10:54:56;;;;;;;2.80;1.60;;;;;;;23.06;62.58;97646.25;1675057;83;21012;-78
2022/09/27 10:57:28;;;;;;;8.95;2.42;;;;;;;23.30;60.30;97634.14;1658010;83;21517;-79
2022/09/27 11:00:05;;;;;;;3.30;1.80;;;;;;;23.43;61.13;97627.95;1680435;85;21001;-80
2022/09/27 11:02:36;;;;;;;3.72;1.65;;;;;;;23.47;60.86;97623.17;1679191;85;21017;-82
2022/09/27 11:05:26;;;;;;;3.30;1.45;;;;;;;23.51;60.15;97629.83;1681143;83;21624;-79
2022/09/27 11:08:04;;;;;;;6.72;1.62;;;;;;;23.40;58.47;97625.63;1669529;84;21513;-80
2022/09/27 11:10:38;;;;;;;1.87;1.22;;;;;;;23.56;59.35;97625.72;1616526;86;21039;-78
2022/09/27 11:13:16;;;;;;;3.08;1.10;;;;;;;23.58;59.47;97626.40;1650534;86;20981;-80
2022/09/27 11:16:23;;;;;;;5.53;1.50;;;;;;;23.62;56.62;97627.75;1679002;85;21053;-82
2022/09/27 11:19:08;;;;;;;3.52;1.30;;;;;;;23.56;57.33;97617.77;1671106;85;20994;-79
2022/09/27 11:22:03;;;;;;;3.42;1.40;;;;;;;23.44;57.65;97616.37;1681028;85;21016;-80
2022/09/27 11:24:48;;;;;;;2.27;1.42;;;;;;;23.42;55.70;97615.19;1690428;84;21053;-81
2022/09/27 11:27:51;;;;;;;6.55;1.60;;;;;;;23.31;56.64;97610.64;1691103;83;21489;-84
2022/09/27 11:30:22;;;;;;;4.53;1.20;;;;;;;23.11;55.75;97608.17;1695732;84;21528;-81
2022/09/27 11:33:24;;;;;;;4.05;1.72;;;;;;;23.00;56.83;97603.10;1691494;84;20993;-80
2022/09/27 11:36:29;;;;;;;2.25;1.30;;;;;;;22.99;56.74;97604.07;1687205;84;21005;-81
2022/09/27 11:39:14;;;;;;;3.58;1.20;;;;;;;22.98;56.30;97597.12;1684626;84;21013;-80
2022/09/27 11:41:54;;;;;;;1.87;1.25;;;;;;;23.15;56.14;97592.30;1654349;85;20981;-83
2022/09/27 11:44:43;;;;;;;3.92;1.72;;;;;;;23.45;56.47;97586.70;1657608;86;21029;-80
2022/09/27 11:47:52;;;;;;;3.12;1.47;;;;;;;23.67;56.34;97584.00;1664736;86;21043;-81
2022/09/27 11:51:01;;;;;;;2.65;1.20;;;;;;;23.85;54.35;97590.08;1659449;86;21087;-79
2022/09/27 11:54:13;;;;;;;3.15;1.27;;;;;;;23.80;54.23;97593.72;1664511;86;21021;-84
2022/09/27 11:57:03;;;;;;;2.17;1.30;;;;;;;23.71;54.07;97589.32;1657991;86;21019;-81
2022/09/27 11:59:39;;;;;;;3.83;1.50;;;;;;;23.68;55.19;97593.63;1653775;86;21459;-78
2022/09/27 12:02:24;;;;;;;2.37;1.52;;;;;;;23.60;54.13;97591.77;1662286;86;21067;-79
2022/09/27 12:05:30;;;;;;;5.33;1.87;;;;;;;23.55;55.25;97586.91;1666213;86;21006;-82
2022/09/27 12:08:26;;;;;;;1.98;1.27;;;;;;;23.49;55.64;97590.70;1652951;86;21045;-82
2022/09/27 12:11:20;;;;;;;6.17;1.45;;;;;;;23.45;54.77;97591.50;1667267;86;21029;-79
2022/09/27 12:14:04;;;;;;;4.72;1.77;;;;;;;23.28;55.29;97591.05;1675503;85;21006;-80
2022/09/27 12:16:35;;;;;;;4.85;1.72;;;;;;;23.22;55.58;97593.85;1665049;84;20990;-80
2022/09/27 12:19:13;;;;;;;3.70;1.50;;;;;;;23.20;55.02;97588.70;1666074;86;21534;-80
2022/09/27 12:21:46;;;;;;;3.35;1.52;;;;;;;23.10;53.62;97583.99;1665436;85;21230;-81